Latest  Newer  Older  Last 2 hours animation  Current image  Latest image 
Rain/snow radar  Infrared sat images 
Real-time lightning map

All time is UTC (add 2 hours to UTC in wintertime, 3 hours to UTC in DST for Latvia local time)

2021/09/21 04:20 EVRA 210420Z 36006KT CAVOK 05/04 Q1020 NOSIG
2021/09/21 04:20 EVLA 210420Z AUTO 00000KT 9999 OVC029/// 03/03 Q1022
2021/09/21 04:20 EVVA 210420Z AUTO 02005KT 9999 OVC023 07/06 Q1022
2021/09/21 04:20 EYKA 210420Z 33008KT 300V010 9999 BKN009 OVC013 06/03 Q1018

2021/09/21 04:20 EYSA 210420Z 34007KT 9999 SCT006 BKN020 OVC049 05/04 Q1020 NOSIG
2021/09/21 04:20 EYVI 210420Z 35012KT 9999 -RA OVC008 05/04 Q1016 NOSIG
2021/09/21 03:50 EEKA 210350Z 02012KT 9999 BKN030 08/06 Q1022
2021/09/21 03:50 EEKE 210350Z 35004KT CAVOK 05/04 Q1022

2021/09/21 04:20 EETN 210420Z 01002KT CAVOK 07/03 Q1021 NOSIG
2021/09/21 03:50 EETU 210350Z AUTO 36005KT 9999 OVC017/// 05/03 Q1019
   RIGA AIRPORT     EVRA               56 55N  023 58E   10   X     T          6 LV
   LIEPAJA INTL     EVLA        26406  56 31N  021 06E    4   X                8 LV
   VENTPILS         EVVA               57 21N  021 33E    6   X                8 LV
   KAUNAS           EYKA               54 54N  023 55E   77   X     T          6 LT
   PALANGA INTL     EYPA               55 55N  021 03E   10   X                6 LT
   SIAULIAI INTL    EYSA               55 54N  023 24E  135   X     T          6 LT
   VILNIUS INTL     EYVI        26730  54 38N  025 17E  197   X     T          6 LT
   KARDLA           EEKA        26116  58 59N  022 50E    4   X                8 EE
   KURESSAARE       EEKE               58 14N  022 31E    4   X                8 EE
   PARNU            EEPU               58 25N  024 28E   14   X                8 EE
   TALLINN          EETN        26038  59 24N  024 49E   40   X     T          8 EE
   TARTU            EETU               58 19N  026 41E   67   X                8 EE

cloud coverage image from sat24.com and METAR data from weather.noaa.gov